sensor_id;sensor_type;location;lat;lon;timestamp;P1;durP1;ratioP1;P2;durP2;ratioP2
12861;SDS011;6499;66.348;14.134;2024-02-28T00:00:05;0.60;;;0.33;;
12861;SDS011;6499;66.348;14.134;2024-02-28T00:02:33;0.57;;;0.50;;
12861;SDS011;6499;66.348;14.134;2024-02-28T00:04:59;0.50;;;0.50;;
12861;SDS011;6499;66.348;14.134;2024-02-28T00:07:26;0.80;;;0.40;;
12861;SDS011;6499;66.348;14.134;2024-02-28T00:09:52;0.60;;;0.40;;
12861;SDS011;6499;66.348;14.134;2024-02-28T00:12:22;0.50;;;0.30;;
12861;SDS011;6499;66.348;14.134;2024-02-28T00:14:50;0.40;;;0.40;;
12861;SDS011;6499;66.348;14.134;2024-02-28T00:17:18;1.30;;;0.30;;
12861;SDS011;6499;66.348;14.134;2024-02-28T00:19:45;0.40;;;0.40;;
12861;SDS011;6499;66.348;14.134;2024-02-28T00:22:11;0.30;;;0.30;;
12861;SDS011;6499;66.348;14.134;2024-02-28T00:24:38;0.63;;;0.40;;
12861;SDS011;6499;66.348;14.134;2024-02-28T00:27:04;0.93;;;0.50;;
12861;SDS011;6499;66.348;14.134;2024-02-28T00:29:31;1.20;;;0.40;;
12861;SDS011;6499;66.348;14.134;2024-02-28T00:31:58;0.50;;;0.33;;
12861;SDS011;6499;66.348;14.134;2024-02-28T00:34:26;1.43;;;0.40;;
12861;SDS011;6499;66.348;14.134;2024-02-28T00:36:52;0.63;;;0.40;;
12861;SDS011;6499;66.348;14.134;2024-02-28T00:39:19;0.50;;;0.40;;
12861;SDS011;6499;66.348;14.134;2024-02-28T00:41:46;0.90;;;0.50;;
12861;SDS011;6499;66.348;14.134;2024-02-28T00:44:12;0.57;;;0.40;;
12861;SDS011;6499;66.348;14.134;2024-02-28T00:46:39;0.67;;;0.50;;
12861;SDS011;6499;66.348;14.134;2024-02-28T00:49:06;0.63;;;0.40;;
12861;SDS011;6499;66.348;14.134;2024-02-28T00:51:34;0.50;;;0.40;;
12861;SDS011;6499;66.348;14.134;2024-02-28T00:54:02;0.83;;;0.40;;
12861;SDS011;6499;66.348;14.134;2024-02-28T00:56:29;1.17;;;0.60;;
12861;SDS011;6499;66.348;14.134;2024-02-28T00:58:55;0.87;;;0.47;;
12861;SDS011;6499;66.348;14.134;2024-02-28T01:01:22;1.53;;;0.53;;
12861;SDS011;6499;66.348;14.134;2024-02-28T01:03:49;0.60;;;0.50;;
12861;SDS011;6499;66.348;14.134;2024-02-28T01:06:15;0.67;;;0.30;;
12861;SDS011;6499;66.348;14.134;2024-02-28T01:08:43;0.73;;;0.50;;
12861;SDS011;6499;66.348;14.134;2024-02-28T01:11:10;0.40;;;0.30;;
12861;SDS011;6499;66.348;14.134;2024-02-28T01:13:37;0.87;;;0.60;;
12861;SDS011;6499;66.348;14.134;2024-02-28T01:16:04;0.40;;;0.40;;
12861;SDS011;6499;66.348;14.134;2024-02-28T01:18:30;1.77;;;0.60;;
12861;SDS011;6499;66.348;14.134;2024-02-28T01:20:57;0.80;;;0.50;;
12861;SDS011;6499;66.348;14.134;2024-02-28T01:23:24;1.20;;;0.60;;
12861;SDS011;6499;66.348;14.134;2024-02-28T01:25:52;0.70;;;0.40;;
12861;SDS011;6499;66.348;14.134;2024-02-28T01:28:19;0.60;;;0.40;;
12861;SDS011;6499;66.348;14.134;2024-02-28T01:30:45;0.70;;;0.40;;
12861;SDS011;6499;66.348;14.134;2024-02-28T01:33:12;0.93;;;0.33;;
12861;SDS011;6499;66.348;14.134;2024-02-28T01:35:39;0.97;;;0.70;;
12861;SDS011;6499;66.348;14.134;2024-02-28T01:38:05;0.73;;;0.60;;
12861;SDS011;6499;66.348;14.134;2024-02-28T01:40:32;1.10;;;0.80;;
12861;SDS011;6499;66.348;14.134;2024-02-28T01:43:03;0.80;;;0.70;;
12861;SDS011;6499;66.348;14.134;2024-02-28T01:45:30;1.40;;;1.30;;
12861;SDS011;6499;66.348;14.134;2024-02-28T01:47:57;1.30;;;1.17;;
12861;SDS011;6499;66.348;14.134;2024-02-28T01:50:23;1.00;;;1.00;;
12861;SDS011;6499;66.348;14.134;2024-02-28T01:52:50;1.37;;;0.93;;
12861;SDS011;6499;66.348;14.134;2024-02-28T01:55:17;0.70;;;0.70;;
12861;SDS011;6499;66.348;14.134;2024-02-28T01:57:43;0.60;;;0.60;;
12861;SDS011;6499;66.348;14.134;2024-02-28T02:00:12;0.80;;;0.60;;
12861;SDS011;6499;66.348;14.134;2024-02-28T02:02:39;0.60;;;0.60;;
12861;SDS011;6499;66.348;14.134;2024-02-28T02:05:06;0.90;;;0.50;;
12861;SDS011;6499;66.348;14.134;2024-02-28T02:07:33;0.47;;;0.40;;
12861;SDS011;6499;66.348;14.134;2024-02-28T02:10:00;1.00;;;0.47;;
12861;SDS011;6499;66.348;14.134;2024-02-28T02:12:27;0.77;;;0.50;;
12861;SDS011;6499;66.348;14.134;2024-02-28T02:14:54;1.23;;;0.50;;
12861;SDS011;6499;66.348;14.134;2024-02-28T02:17:22;0.60;;;0.40;;
12861;SDS011;6499;66.348;14.134;2024-02-28T02:19:49;0.50;;;0.30;;
12861;SDS011;6499;66.348;14.134;2024-02-28T02:22:15;0.50;;;0.50;;
12861;SDS011;6499;66.348;14.134;2024-02-28T02:24:44;0.40;;;0.40;;
12861;SDS011;6499;66.348;14.134;2024-02-28T02:27:11;0.60;;;0.40;;
12861;SDS011;6499;66.348;14.134;2024-02-28T02:29:37;0.60;;;0.30;;
12861;SDS011;6499;66.348;14.134;2024-02-28T02:32:04;0.70;;;0.37;;
12861;SDS011;6499;66.348;14.134;2024-02-28T02:34:31;0.20;;;0.20;;
12861;SDS011;6499;66.348;14.134;2024-02-28T02:36:58;0.30;;;0.30;;
12861;SDS011;6499;66.348;14.134;2024-02-28T02:39:24;0.30;;;0.30;;
12861;SDS011;6499;66.348;14.134;2024-02-28T02:41:52;0.23;;;0.20;;
12861;SDS011;6499;66.348;14.134;2024-02-28T02:44:19;0.47;;;0.30;;
12861;SDS011;6499;66.348;14.134;2024-02-28T02:46:46;0.47;;;0.30;;
12861;SDS011;6499;66.348;14.134;2024-02-28T02:49:13;0.50;;;0.30;;
12861;SDS011;6499;66.348;14.134;2024-02-28T02:51:42;0.33;;;0.33;;
12861;SDS011;6499;66.348;14.134;2024-02-28T02:54:08;0.60;;;0.30;;
12861;SDS011;6499;66.348;14.134;2024-02-28T02:56:35;0.50;;;0.30;;
12861;SDS011;6499;66.348;14.134;2024-02-28T02:59:03;0.73;;;0.33;;
12861;SDS011;6499;66.348;14.134;2024-02-28T03:01:29;0.83;;;0.40;;
12861;SDS011;6499;66.348;14.134;2024-02-28T03:03:56;0.47;;;0.40;;
12861;SDS011;6499;66.348;14.134;2024-02-28T03:06:23;0.50;;;0.40;;
12861;SDS011;6499;66.348;14.134;2024-02-28T03:08:49;1.07;;;0.57;;
12861;SDS011;6499;66.348;14.134;2024-02-28T03:11:17;0.40;;;0.30;;
12861;SDS011;6499;66.348;14.134;2024-02-28T03:13:43;0.37;;;0.30;;
12861;SDS011;6499;66.348;14.134;2024-02-28T03:16:12;0.70;;;0.40;;
12861;SDS011;6499;66.348;14.134;2024-02-28T03:18:38;1.03;;;0.30;;
12861;SDS011;6499;66.348;14.134;2024-02-28T03:21:05;0.60;;;0.40;;
12861;SDS011;6499;66.348;14.134;2024-02-28T03:23:32;0.40;;;0.40;;
12861;SDS011;6499;66.348;14.134;2024-02-28T03:26:01;0.40;;;0.40;;
12861;SDS011;6499;66.348;14.134;2024-02-28T03:28:30;0.50;;;0.50;;
12861;SDS011;6499;66.348;14.134;2024-02-28T03:30:57;1.40;;;0.40;;
12861;SDS011;6499;66.348;14.134;2024-02-28T03:33:25;0.43;;;0.40;;
12861;SDS011;6499;66.348;14.134;2024-02-28T03:35:51;0.90;;;0.60;;
12861;SDS011;6499;66.348;14.134;2024-02-28T03:38:18;0.50;;;0.37;;
12861;SDS011;6499;66.348;14.134;2024-02-28T03:40:45;0.90;;;0.57;;
12861;SDS011;6499;66.348;14.134;2024-02-28T03:43:11;0.33;;;0.30;;
12861;SDS011;6499;66.348;14.134;2024-02-28T03:45:39;0.97;;;0.40;;
12861;SDS011;6499;66.348;14.134;2024-02-28T03:48:06;0.40;;;0.40;;
12861;SDS011;6499;66.348;14.134;2024-02-28T03:50:35;0.87;;;0.53;;
12861;SDS011;6499;66.348;14.134;2024-02-28T03:53:02;0.70;;;0.60;;
12861;SDS011;6499;66.348;14.134;2024-02-28T03:55:29;0.50;;;0.50;;
12861;SDS011;6499;66.348;14.134;2024-02-28T03:57:56;0.60;;;0.40;;
12861;SDS011;6499;66.348;14.134;2024-02-28T04:00:22;0.50;;;0.50;;
12861;SDS011;6499;66.348;14.134;2024-02-28T04:02:50;1.00;;;0.37;;
12861;SDS011;6499;66.348;14.134;2024-02-28T04:05:17;0.40;;;0.30;;
12861;SDS011;6499;66.348;14.134;2024-02-28T04:07:45;0.40;;;0.30;;
12861;SDS011;6499;66.348;14.134;2024-02-28T04:10:12;0.57;;;0.40;;
12861;SDS011;6499;66.348;14.134;2024-02-28T04:12:42;0.40;;;0.30;;
12861;SDS011;6499;66.348;14.134;2024-02-28T04:15:08;0.60;;;0.37;;
12861;SDS011;6499;66.348;14.134;2024-02-28T04:17:39;0.40;;;0.40;;
12861;SDS011;6499;66.348;14.134;2024-02-28T04:20:07;0.40;;;0.40;;
12861;SDS011;6499;66.348;14.134;2024-02-28T04:22:34;0.60;;;0.50;;
12861;SDS011;6499;66.348;14.134;2024-02-28T04:25:02;1.00;;;0.40;;
12861;SDS011;6499;66.348;14.134;2024-02-28T04:27:29;0.67;;;0.40;;
12861;SDS011;6499;66.348;14.134;2024-02-28T04:29:56;0.97;;;0.70;;
12861;SDS011;6499;66.348;14.134;2024-02-28T04:32:22;2.03;;;0.70;;
12861;SDS011;6499;66.348;14.134;2024-02-28T04:34:49;0.30;;;0.23;;
12861;SDS011;6499;66.348;14.134;2024-02-28T04:37:16;0.43;;;0.30;;
12861;SDS011;6499;66.348;14.134;2024-02-28T04:39:42;0.30;;;0.30;;
12861;SDS011;6499;66.348;14.134;2024-02-28T04:42:11;0.70;;;0.70;;
12861;SDS011;6499;66.348;14.134;2024-02-28T04:44:37;0.60;;;0.60;;
12861;SDS011;6499;66.348;14.134;2024-02-28T04:47:04;0.30;;;0.30;;
12861;SDS011;6499;66.348;14.134;2024-02-28T04:49:38;0.67;;;0.47;;
12861;SDS011;6499;66.348;14.134;2024-02-28T04:52:05;1.00;;;0.40;;
12861;SDS011;6499;66.348;14.134;2024-02-28T04:54:31;0.57;;;0.43;;
12861;SDS011;6499;66.348;14.134;2024-02-28T04:56:58;0.40;;;0.30;;
12861;SDS011;6499;66.348;14.134;2024-02-28T04:59:26;0.90;;;0.50;;
12861;SDS011;6499;66.348;14.134;2024-02-28T05:01:53;0.83;;;0.40;;
12861;SDS011;6499;66.348;14.134;2024-02-28T05:04:19;0.30;;;0.30;;
12861;SDS011;6499;66.348;14.134;2024-02-28T05:06:46;0.30;;;0.30;;
12861;SDS011;6499;66.348;14.134;2024-02-28T05:09:13;0.50;;;0.33;;
12861;SDS011;6499;66.348;14.134;2024-02-28T05:11:39;0.30;;;0.30;;
12861;SDS011;6499;66.348;14.134;2024-02-28T05:14:06;0.73;;;0.57;;
12861;SDS011;6499;66.348;14.134;2024-02-28T05:16:34;0.30;;;0.30;;
12861;SDS011;6499;66.348;14.134;2024-02-28T05:19:01;0.40;;;0.40;;
12861;SDS011;6499;66.348;14.134;2024-02-28T05:21:27;0.40;;;0.40;;
12861;SDS011;6499;66.348;14.134;2024-02-28T05:23:54;1.00;;;0.37;;
12861;SDS011;6499;66.348;14.134;2024-02-28T05:26:21;0.50;;;0.30;;
12861;SDS011;6499;66.348;14.134;2024-02-28T05:28:47;0.33;;;0.20;;
12861;SDS011;6499;66.348;14.134;2024-02-28T05:31:25;0.37;;;0.30;;
12861;SDS011;6499;66.348;14.134;2024-02-28T05:33:54;0.50;;;0.40;;
12861;SDS011;6499;66.348;14.134;2024-02-28T05:36:21;0.53;;;0.43;;
12861;SDS011;6499;66.348;14.134;2024-02-28T05:38:48;0.30;;;0.20;;
12861;SDS011;6499;66.348;14.134;2024-02-28T05:41:15;0.70;;;0.30;;
12861;SDS011;6499;66.348;14.134;2024-02-28T05:43:42;0.40;;;0.40;;
12861;SDS011;6499;66.348;14.134;2024-02-28T05:46:09;0.53;;;0.47;;
12861;SDS011;6499;66.348;14.134;2024-02-28T05:48:36;0.53;;;0.50;;
12861;SDS011;6499;66.348;14.134;2024-02-28T05:51:04;0.63;;;0.40;;
12861;SDS011;6499;66.348;14.134;2024-02-28T05:53:31;0.93;;;0.33;;
12861;SDS011;6499;66.348;14.134;2024-02-28T05:56:01;0.50;;;0.30;;
12861;SDS011;6499;66.348;14.134;2024-02-28T05:58:27;0.73;;;0.40;;
12861;SDS011;6499;66.348;14.134;2024-02-28T06:00:54;0.40;;;0.20;;
12861;SDS011;6499;66.348;14.134;2024-02-28T06:03:21;0.67;;;0.30;;
12861;SDS011;6499;66.348;14.134;2024-02-28T06:05:47;0.33;;;0.30;;
12861;SDS011;6499;66.348;14.134;2024-02-28T06:08:15;0.30;;;0.30;;
12861;SDS011;6499;66.348;14.134;2024-02-28T06:10:42;0.30;;;0.30;;
12861;SDS011;6499;66.348;14.134;2024-02-28T06:13:11;0.50;;;0.30;;
12861;SDS011;6499;66.348;14.134;2024-02-28T06:15:38;0.37;;;0.20;;
12861;SDS011;6499;66.348;14.134;2024-02-28T06:18:05;0.43;;;0.30;;
12861;SDS011;6499;66.348;14.134;2024-02-28T06:20:31;1.07;;;0.40;;
12861;SDS011;6499;66.348;14.134;2024-02-28T06:22:58;0.93;;;0.30;;
12861;SDS011;6499;66.348;14.134;2024-02-28T06:25:26;0.77;;;0.40;;
12861;SDS011;6499;66.348;14.134;2024-02-28T06:27:53;0.40;;;0.40;;
12861;SDS011;6499;66.348;14.134;2024-02-28T06:30:20;1.20;;;0.47;;
12861;SDS011;6499;66.348;14.134;2024-02-28T06:32:46;0.50;;;0.50;;
12861;SDS011;6499;66.348;14.134;2024-02-28T06:35:13;0.93;;;0.40;;
12861;SDS011;6499;66.348;14.134;2024-02-28T06:37:40;1.40;;;0.50;;
12861;SDS011;6499;66.348;14.134;2024-02-28T06:40:07;1.03;;;0.80;;
12861;SDS011;6499;66.348;14.134;2024-02-28T06:42:35;2.67;;;1.10;;
12861;SDS011;6499;66.348;14.134;2024-02-28T06:45:02;0.80;;;0.80;;
12861;SDS011;6499;66.348;14.134;2024-02-28T06:47:29;2.47;;;0.87;;
12861;SDS011;6499;66.348;14.134;2024-02-28T06:49:55;1.63;;;0.80;;
12861;SDS011;6499;66.348;14.134;2024-02-28T06:52:22;1.13;;;0.63;;
12861;SDS011;6499;66.348;14.134;2024-02-28T06:54:49;0.57;;;0.40;;
12861;SDS011;6499;66.348;14.134;2024-02-28T06:57:16;0.90;;;0.50;;
12861;SDS011;6499;66.348;14.134;2024-02-28T06:59:44;0.50;;;0.50;;
12861;SDS011;6499;66.348;14.134;2024-02-28T07:02:11;0.47;;;0.47;;
12861;SDS011;6499;66.348;14.134;2024-02-28T07:04:38;1.03;;;0.40;;
12861;SDS011;6499;66.348;14.134;2024-02-28T07:07:06;0.50;;;0.40;;
12861;SDS011;6499;66.348;14.134;2024-02-28T07:09:32;0.50;;;0.30;;
12861;SDS011;6499;66.348;14.134;2024-02-28T07:11:59;0.30;;;0.30;;
12861;SDS011;6499;66.348;14.134;2024-02-28T07:14:27;1.13;;;0.40;;
12861;SDS011;6499;66.348;14.134;2024-02-28T07:16:55;0.83;;;0.30;;
12861;SDS011;6499;66.348;14.134;2024-02-28T07:19:22;0.50;;;0.50;;
12861;SDS011;6499;66.348;14.134;2024-02-28T07:21:48;0.53;;;0.33;;
12861;SDS011;6499;66.348;14.134;2024-02-28T07:24:15;0.50;;;0.33;;
12861;SDS011;6499;66.348;14.134;2024-02-28T07:26:42;0.37;;;0.37;;
12861;SDS011;6499;66.348;14.134;2024-02-28T07:29:08;1.63;;;0.40;;
12861;SDS011;6499;66.348;14.134;2024-02-28T07:31:35;0.70;;;0.20;;
12861;SDS011;6499;66.348;14.134;2024-02-28T07:34:03;1.27;;;0.30;;
12861;SDS011;6499;66.348;14.134;2024-02-28T07:36:30;0.30;;;0.30;;
12861;SDS011;6499;66.348;14.134;2024-02-28T07:38:57;0.27;;;0.27;;
12861;SDS011;6499;66.348;14.134;2024-02-28T07:41:23;0.57;;;0.30;;
12861;SDS011;6499;66.348;14.134;2024-02-28T07:43:50;0.50;;;0.23;;
12861;SDS011;6499;66.348;14.134;2024-02-28T07:46:17;1.07;;;0.40;;
12861;SDS011;6499;66.348;14.134;2024-02-28T07:48:43;0.30;;;0.30;;
12861;SDS011;6499;66.348;14.134;2024-02-28T07:51:11;0.30;;;0.20;;
12861;SDS011;6499;66.348;14.134;2024-02-28T07:53:38;0.60;;;0.50;;
12861;SDS011;6499;66.348;14.134;2024-02-28T07:56:05;1.17;;;0.40;;
12861;SDS011;6499;66.348;14.134;2024-02-28T07:58:32;0.43;;;0.40;;
12861;SDS011;6499;66.348;14.134;2024-02-28T08:00:59;0.97;;;0.50;;
12861;SDS011;6499;66.348;14.134;2024-02-28T08:03:25;0.30;;;0.30;;
12861;SDS011;6499;66.348;14.134;2024-02-28T08:05:52;0.30;;;0.30;;
12861;SDS011;6499;66.348;14.134;2024-02-28T08:17:14;0.30;;;0.30;;
12861;SDS011;6499;66.348;14.134;2024-02-28T08:19:41;0.80;;;0.30;;
12861;SDS011;6499;66.348;14.134;2024-02-28T08:22:08;0.40;;;0.30;;
12861;SDS011;6499;66.348;14.134;2024-02-28T08:24:35;1.23;;;0.50;;
12861;SDS011;6499;66.348;14.134;2024-02-28T08:27:02;0.50;;;0.50;;
12861;SDS011;6499;66.348;14.134;2024-02-28T08:29:29;1.93;;;0.40;;
12861;SDS011;6499;66.348;14.134;2024-02-28T08:31:57;1.17;;;0.53;;
12861;SDS011;6499;66.348;14.134;2024-02-28T08:34:25;0.97;;;0.50;;
12861;SDS011;6499;66.348;14.134;2024-02-28T08:36:55;1.43;;;1.00;;
12861;SDS011;6499;66.348;14.134;2024-02-28T08:39:22;0.50;;;0.43;;
12861;SDS011;6499;66.348;14.134;2024-02-28T08:41:49;0.50;;;0.40;;
12861;SDS011;6499;66.348;14.134;2024-02-28T08:44:16;0.70;;;0.50;;
12861;SDS011;6499;66.348;14.134;2024-02-28T08:46:43;0.60;;;0.47;;
12861;SDS011;6499;66.348;14.134;2024-02-28T08:49:09;6.90;;;3.63;;
12861;SDS011;6499;66.348;14.134;2024-02-28T08:51:37;4.43;;;2.40;;
12861;SDS011;6499;66.348;14.134;2024-02-28T08:54:05;2.63;;;1.40;;
12861;SDS011;6499;66.348;14.134;2024-02-28T08:56:32;2.07;;;1.27;;
12861;SDS011;6499;66.348;14.134;2024-02-28T08:58:59;1.33;;;0.90;;
12861;SDS011;6499;66.348;14.134;2024-02-28T09:01:25;3.07;;;1.80;;
12861;SDS011;6499;66.348;14.134;2024-02-28T09:03:52;1.87;;;1.43;;
12861;SDS011;6499;66.348;14.134;2024-02-28T09:06:19;2.33;;;1.77;;
12861;SDS011;6499;66.348;14.134;2024-02-28T09:08:47;0.70;;;0.40;;
12861;SDS011;6499;66.348;14.134;2024-02-28T09:11:13;0.40;;;0.30;;
12861;SDS011;6499;66.348;14.134;2024-02-28T09:13:42;0.57;;;0.40;;
12861;SDS011;6499;66.348;14.134;2024-02-28T09:16:08;0.87;;;0.30;;
12861;SDS011;6499;66.348;14.134;2024-02-28T09:18:35;0.50;;;0.30;;
12861;SDS011;6499;66.348;14.134;2024-02-28T09:21:02;0.50;;;0.40;;
12861;SDS011;6499;66.348;14.134;2024-02-28T09:23:30;0.30;;;0.30;;
12861;SDS011;6499;66.348;14.134;2024-02-28T09:25:59;0.90;;;0.40;;
12861;SDS011;6499;66.348;14.134;2024-02-28T09:28:35;0.30;;;0.30;;
12861;SDS011;6499;66.348;14.134;2024-02-28T09:31:02;0.37;;;0.37;;
12861;SDS011;6499;66.348;14.134;2024-02-28T09:33:31;0.30;;;0.30;;
12861;SDS011;6499;66.348;14.134;2024-02-28T09:35:57;1.10;;;0.93;;
12861;SDS011;6499;66.348;14.134;2024-02-28T09:38:25;0.53;;;0.50;;
12861;SDS011;6499;66.348;14.134;2024-02-28T09:40:52;1.40;;;0.90;;
12861;SDS011;6499;66.348;14.134;2024-02-28T09:43:22;0.60;;;0.50;;
12861;SDS011;6499;66.348;14.134;2024-02-28T09:45:55;1.17;;;0.50;;
12861;SDS011;6499;66.348;14.134;2024-02-28T09:48:32;1.47;;;0.70;;
12861;SDS011;6499;66.348;14.134;2024-02-28T09:50:59;0.30;;;0.30;;
12861;SDS011;6499;66.348;14.134;2024-02-28T09:53:26;1.00;;;0.50;;
12861;SDS011;6499;66.348;14.134;2024-02-28T09:55:55;0.40;;;0.40;;
12861;SDS011;6499;66.348;14.134;2024-02-28T09:58:24;0.57;;;0.57;;
12861;SDS011;6499;66.348;14.134;2024-02-28T10:00:53;0.53;;;0.50;;
12861;SDS011;6499;66.348;14.134;2024-02-28T10:03:27;0.67;;;0.33;;
12861;SDS011;6499;66.348;14.134;2024-02-28T10:05:54;1.57;;;0.70;;
12861;SDS011;6499;66.348;14.134;2024-02-28T10:08:20;0.70;;;0.50;;
12861;SDS011;6499;66.348;14.134;2024-02-28T10:10:51;0.90;;;0.67;;
12861;SDS011;6499;66.348;14.134;2024-02-28T10:13:22;1.57;;;0.70;;
12861;SDS011;6499;66.348;14.134;2024-02-28T10:15:51;1.00;;;0.60;;
12861;SDS011;6499;66.348;14.134;2024-02-28T10:18:17;1.07;;;0.70;;
12861;SDS011;6499;66.348;14.134;2024-02-28T10:20:47;1.50;;;0.70;;
12861;SDS011;6499;66.348;14.134;2024-02-28T10:23:14;1.80;;;0.60;;
12861;SDS011;6499;66.348;14.134;2024-02-28T10:25:41;1.70;;;0.67;;
12861;SDS011;6499;66.348;14.134;2024-02-28T10:28:09;1.10;;;0.70;;
12861;SDS011;6499;66.348;14.134;2024-02-28T10:30:38;0.70;;;0.40;;
12861;SDS011;6499;66.348;14.134;2024-02-28T10:33:09;2.33;;;0.60;;
12861;SDS011;6499;66.348;14.134;2024-02-28T10:35:40;1.40;;;0.53;;
12861;SDS011;6499;66.348;14.134;2024-02-28T10:44:11;1.80;;;1.70;;
12861;SDS011;6499;66.348;14.134;2024-02-28T11:46:07;1.50;;;0.70;;
12861;SDS011;6499;66.348;14.134;2024-02-28T11:48:38;0.43;;;0.43;;
12861;SDS011;6499;66.348;14.134;2024-02-28T11:54:11;0.87;;;0.40;;
12861;SDS011;6499;66.348;14.134;2024-02-28T11:56:40;0.60;;;0.50;;
12861;SDS011;6499;66.348;14.134;2024-02-28T12:28:01;1.10;;;1.00;;
12861;SDS011;6499;66.348;14.134;2024-02-28T12:36:14;2.40;;;1.10;;
12861;SDS011;6499;66.348;14.134;2024-02-28T12:37:06;2.40;;;1.30;;
12861;SDS011;6499;66.348;14.134;2024-02-28T12:42:33;1.70;;;1.00;;
12861;SDS011;6499;66.348;14.134;2024-02-28T12:45:03;2.40;;;1.00;;
12861;SDS011;6499;66.348;14.134;2024-02-28T12:47:30;2.20;;;1.03;;
12861;SDS011;6499;66.348;14.134;2024-02-28T12:49:57;1.37;;;1.00;;
12861;SDS011;6499;66.348;14.134;2024-02-28T12:52:24;2.07;;;1.10;;
12861;SDS011;6499;66.348;14.134;2024-02-28T12:54:51;2.30;;;1.10;;
12861;SDS011;6499;66.348;14.134;2024-02-28T12:57:18;1.57;;;0.90;;
12861;SDS011;6499;66.348;14.134;2024-02-28T12:59:44;2.90;;;1.10;;
12861;SDS011;6499;66.348;14.134;2024-02-28T13:02:12;1.73;;;0.90;;
12861;SDS011;6499;66.348;14.134;2024-02-28T13:04:41;1.53;;;0.63;;
12861;SDS011;6499;66.348;14.134;2024-02-28T13:07:07;2.93;;;0.90;;
12861;SDS011;6499;66.348;14.134;2024-02-28T13:09:34;1.27;;;0.80;;
12861;SDS011;6499;66.348;14.134;2024-02-28T13:12:01;1.67;;;0.73;;
12861;SDS011;6499;66.348;14.134;2024-02-28T13:14:28;1.03;;;0.70;;
12861;SDS011;6499;66.348;14.134;2024-02-28T13:16:54;2.30;;;0.90;;
12861;SDS011;6499;66.348;14.134;2024-02-28T13:19:22;1.63;;;0.90;;
12861;SDS011;6499;66.348;14.134;2024-02-28T13:21:49;1.43;;;0.50;;
12861;SDS011;6499;66.348;14.134;2024-02-28T13:24:16;2.00;;;0.60;;
12861;SDS011;6499;66.348;14.134;2024-02-28T13:26:43;2.07;;;0.70;;
12861;SDS011;6499;66.348;14.134;2024-02-28T13:29:09;1.77;;;0.60;;
12861;SDS011;6499;66.348;14.134;2024-02-28T13:31:36;2.27;;;0.80;;
12861;SDS011;6499;66.348;14.134;2024-02-28T13:34:02;1.70;;;0.77;;
12861;SDS011;6499;66.348;14.134;2024-02-28T13:36:31;1.20;;;0.40;;
12861;SDS011;6499;66.348;14.134;2024-02-28T13:39:01;2.13;;;0.87;;
12861;SDS011;6499;66.348;14.134;2024-02-28T13:41:28;2.67;;;0.70;;
12861;SDS011;6499;66.348;14.134;2024-02-28T13:43:55;2.63;;;1.10;;
12861;SDS011;6499;66.348;14.134;2024-02-28T13:46:21;2.80;;;0.70;;
12861;SDS011;6499;66.348;14.134;2024-02-28T13:48:48;1.63;;;0.63;;
12861;SDS011;6499;66.348;14.134;2024-02-28T13:51:15;2.13;;;0.60;;
12861;SDS011;6499;66.348;14.134;2024-02-28T13:53:43;3.03;;;0.63;;
12861;SDS011;6499;66.348;14.134;2024-02-28T13:56:10;1.47;;;0.57;;
12861;SDS011;6499;66.348;14.134;2024-02-28T13:58:37;3.80;;;0.70;;
12861;SDS011;6499;66.348;14.134;2024-02-28T14:01:04;2.27;;;0.70;;
12861;SDS011;6499;66.348;14.134;2024-02-28T14:03:32;2.03;;;0.40;;
12861;SDS011;6499;66.348;14.134;2024-02-28T14:05:58;1.60;;;0.67;;
12861;SDS011;6499;66.348;14.134;2024-02-28T14:08:25;3.30;;;0.80;;
12861;SDS011;6499;66.348;14.134;2024-02-28T14:10:56;4.23;;;1.03;;
12861;SDS011;6499;66.348;14.134;2024-02-28T14:13:23;4.37;;;0.90;;
12861;SDS011;6499;66.348;14.134;2024-02-28T14:15:50;4.67;;;1.10;;
12861;SDS011;6499;66.348;14.134;2024-02-28T14:18:18;1.40;;;0.53;;
12861;SDS011;6499;66.348;14.134;2024-02-28T14:20:45;2.70;;;0.70;;
12861;SDS011;6499;66.348;14.134;2024-02-28T14:23:11;2.67;;;0.63;;
12861;SDS011;6499;66.348;14.134;2024-02-28T14:25:38;1.10;;;0.50;;
12861;SDS011;6499;66.348;14.134;2024-02-28T14:28:08;2.47;;;0.47;;
12861;SDS011;6499;66.348;14.134;2024-02-28T14:30:34;2.27;;;0.70;;
12861;SDS011;6499;66.348;14.134;2024-02-28T14:33:01;4.27;;;0.87;;
12861;SDS011;6499;66.348;14.134;2024-02-28T14:35:28;2.20;;;0.60;;
12861;SDS011;6499;66.348;14.134;2024-02-28T14:37:55;2.75;;;0.93;;
12861;SDS011;6499;66.348;14.134;2024-02-28T14:40:21;2.77;;;0.63;;
12861;SDS011;6499;66.348;14.134;2024-02-28T14:42:48;1.10;;;0.70;;
12861;SDS011;6499;66.348;14.134;2024-02-28T14:45:16;2.07;;;0.70;;
12861;SDS011;6499;66.348;14.134;2024-02-28T14:47:42;1.50;;;0.60;;
12861;SDS011;6499;66.348;14.134;2024-02-28T14:50:10;1.77;;;0.60;;
12861;SDS011;6499;66.348;14.134;2024-02-28T14:52:36;1.50;;;0.70;;
12861;SDS011;6499;66.348;14.134;2024-02-28T14:55:04;2.80;;;0.83;;
12861;SDS011;6499;66.348;14.134;2024-02-28T14:57:33;2.10;;;0.67;;
12861;SDS011;6499;66.348;14.134;2024-02-28T15:00:00;2.13;;;0.60;;
12861;SDS011;6499;66.348;14.134;2024-02-28T15:02:34;1.83;;;0.70;;
12861;SDS011;6499;66.348;14.134;2024-02-28T15:05:01;0.77;;;0.60;;
12861;SDS011;6499;66.348;14.134;2024-02-28T15:07:30;0.93;;;0.50;;
12861;SDS011;6499;66.348;14.134;2024-02-28T15:09:57;0.90;;;0.40;;
12861;SDS011;6499;66.348;14.134;2024-02-28T15:12:25;1.47;;;0.60;;
12861;SDS011;6499;66.348;14.134;2024-02-28T15:14:52;2.00;;;0.70;;
12861;SDS011;6499;66.348;14.134;2024-02-28T15:17:19;3.50;;;1.33;;
12861;SDS011;6499;66.348;14.134;2024-02-28T15:19:47;1.17;;;0.67;;
12861;SDS011;6499;66.348;14.134;2024-02-28T15:22:14;1.70;;;0.60;;
12861;SDS011;6499;66.348;14.134;2024-02-28T15:24:40;2.57;;;0.60;;
12861;SDS011;6499;66.348;14.134;2024-02-28T15:27:07;1.70;;;0.47;;
12861;SDS011;6499;66.348;14.134;2024-02-28T15:29:34;1.73;;;0.77;;
12861;SDS011;6499;66.348;14.134;2024-02-28T15:32:01;2.53;;;0.90;;
12861;SDS011;6499;66.348;14.134;2024-02-28T15:34:27;1.50;;;0.80;;
12861;SDS011;6499;66.348;14.134;2024-02-28T15:36:55;1.73;;;0.67;;
12861;SDS011;6499;66.348;14.134;2024-02-28T15:39:22;2.80;;;0.50;;
12861;SDS011;6499;66.348;14.134;2024-02-28T15:41:51;1.50;;;0.57;;
12861;SDS011;6499;66.348;14.134;2024-02-28T15:44:18;0.97;;;0.30;;
12861;SDS011;6499;66.348;14.134;2024-02-28T15:46:45;0.40;;;0.40;;
12861;SDS011;6499;66.348;14.134;2024-02-28T15:49:11;0.83;;;0.50;;
12861;SDS011;6499;66.348;14.134;2024-02-28T15:51:38;0.80;;;0.40;;
12861;SDS011;6499;66.348;14.134;2024-02-28T15:54:06;0.80;;;0.40;;
12861;SDS011;6499;66.348;14.134;2024-02-28T15:56:32;1.90;;;0.60;;
12861;SDS011;6499;66.348;14.134;2024-02-28T15:59:00;2.13;;;0.40;;
12861;SDS011;6499;66.348;14.134;2024-02-28T16:01:27;2.57;;;0.40;;
12861;SDS011;6499;66.348;14.134;2024-02-28T16:03:53;1.10;;;0.30;;
12861;SDS011;6499;66.348;14.134;2024-02-28T16:06:20;1.53;;;0.47;;
12861;SDS011;6499;66.348;14.134;2024-02-28T16:08:49;1.73;;;1.20;;
12861;SDS011;6499;66.348;14.134;2024-02-28T16:11:17;2.30;;;1.00;;
12861;SDS011;6499;66.348;14.134;2024-02-28T16:13:44;1.43;;;0.70;;
12861;SDS011;6499;66.348;14.134;2024-02-28T16:16:13;0.30;;;0.30;;
12861;SDS011;6499;66.348;14.134;2024-02-28T16:18:40;0.70;;;0.50;;
12861;SDS011;6499;66.348;14.134;2024-02-28T16:21:07;1.20;;;0.40;;
12861;SDS011;6499;66.348;14.134;2024-02-28T16:23:34;1.87;;;0.90;;
12861;SDS011;6499;66.348;14.134;2024-02-28T16:26:03;2.87;;;1.70;;
12861;SDS011;6499;66.348;14.134;2024-02-28T16:28:31;1.80;;;0.90;;
12861;SDS011;6499;66.348;14.134;2024-02-28T16:30:58;0.30;;;0.20;;
12861;SDS011;6499;66.348;14.134;2024-02-28T16:33:25;1.20;;;0.60;;
12861;SDS011;6499;66.348;14.134;2024-02-28T16:35:52;0.63;;;0.20;;
12861;SDS011;6499;66.348;14.134;2024-02-28T16:38:19;0.20;;;0.20;;
12861;SDS011;6499;66.348;14.134;2024-02-28T16:40:46;0.20;;;0.20;;